sensor_id;sensor_type;location;lat;lon;timestamp;pressure;altitude;pressure_sealevel;temperature
58929;BMP180;44713;53.378;10.022;2023-04-24T00:00:04;99752.00;;;13.10
58929;BMP180;44713;53.378;10.022;2023-04-24T00:02:34;99746.00;;;13.10
58929;BMP180;44713;53.378;10.022;2023-04-24T00:05:00;99735.00;;;13.10
58929;BMP180;44713;53.378;10.022;2023-04-24T00:07:28;99733.00;;;13.00
58929;BMP180;44713;53.378;10.022;2023-04-24T00:09:54;99733.00;;;13.00
58929;BMP180;44713;53.378;10.022;2023-04-24T00:12:19;99735.00;;;13.00
58929;BMP180;44713;53.378;10.022;2023-04-24T00:14:45;99738.00;;;13.00
58929;BMP180;44713;53.378;10.022;2023-04-24T00:17:10;99738.00;;;12.90
58929;BMP180;44713;53.378;10.022;2023-04-24T00:19:35;99729.00;;;12.90
58929;BMP180;44713;53.378;10.022;2023-04-24T00:22:02;99728.00;;;12.80
58929;BMP180;44713;53.378;10.022;2023-04-24T00:24:27;99730.00;;;12.80
58929;BMP180;44713;53.378;10.022;2023-04-24T00:26:53;99723.00;;;12.80
58929;BMP180;44713;53.378;10.022;2023-04-24T00:29:18;99719.00;;;12.90
58929;BMP180;44713;53.378;10.022;2023-04-24T00:31:43;99715.00;;;12.80
58929;BMP180;44713;53.378;10.022;2023-04-24T00:34:09;99723.00;;;12.70
58929;BMP180;44713;53.378;10.022;2023-04-24T00:36:35;99714.00;;;12.70
58929;BMP180;44713;53.378;10.022;2023-04-24T00:39:01;99713.00;;;12.70
58929;BMP180;44713;53.378;10.022;2023-04-24T00:41:26;99710.00;;;12.60
58929;BMP180;44713;53.378;10.022;2023-04-24T00:43:52;99715.00;;;12.50
58929;BMP180;44713;53.378;10.022;2023-04-24T00:46:18;99715.00;;;12.60
58929;BMP180;44713;53.378;10.022;2023-04-24T00:48:44;99711.00;;;12.50
58929;BMP180;44713;53.378;10.022;2023-04-24T00:51:10;99718.00;;;12.40
58929;BMP180;44713;53.378;10.022;2023-04-24T00:53:35;99709.00;;;12.40
58929;BMP180;44713;53.378;10.022;2023-04-24T00:56:01;99709.00;;;12.40
58929;BMP180;44713;53.378;10.022;2023-04-24T00:58:27;99708.00;;;12.30
58929;BMP180;44713;53.378;10.022;2023-04-24T01:00:54;99701.00;;;12.30
58929;BMP180;44713;53.378;10.022;2023-04-24T01:03:22;99707.00;;;12.30
58929;BMP180;44713;53.378;10.022;2023-04-24T01:05:49;99712.00;;;12.30
58929;BMP180;44713;53.378;10.022;2023-04-24T01:08:15;99709.00;;;12.20
58929;BMP180;44713;53.378;10.022;2023-04-24T01:10:41;99707.00;;;12.20
58929;BMP180;44713;53.378;10.022;2023-04-24T01:13:08;99710.00;;;12.20
58929;BMP180;44713;53.378;10.022;2023-04-24T01:15:34;99710.00;;;12.20
58929;BMP180;44713;53.378;10.022;2023-04-24T01:17:59;99711.00;;;12.20
58929;BMP180;44713;53.378;10.022;2023-04-24T01:20:25;99715.00;;;12.20
58929;BMP180;44713;53.378;10.022;2023-04-24T01:22:51;99709.00;;;12.10
58929;BMP180;44713;53.378;10.022;2023-04-24T01:25:17;99711.00;;;12.10
58929;BMP180;44713;53.378;10.022;2023-04-24T01:27:42;99701.00;;;12.10
58929;BMP180;44713;53.378;10.022;2023-04-24T01:30:09;99694.00;;;12.00
58929;BMP180;44713;53.378;10.022;2023-04-24T01:32:35;99707.00;;;12.10
58929;BMP180;44713;53.378;10.022;2023-04-24T01:35:01;99706.00;;;12.10
58929;BMP180;44713;53.378;10.022;2023-04-24T01:37:27;99713.00;;;12.10
58929;BMP180;44713;53.378;10.022;2023-04-24T01:39:53;99712.00;;;12.10
58929;BMP180;44713;53.378;10.022;2023-04-24T01:42:18;99707.00;;;12.10
58929;BMP180;44713;53.378;10.022;2023-04-24T01:44:46;99693.00;;;12.10
58929;BMP180;44713;53.378;10.022;2023-04-24T01:47:12;99686.00;;;12.00
58929;BMP180;44713;53.378;10.022;2023-04-24T01:49:39;99685.00;;;12.00
58929;BMP180;44713;53.378;10.022;2023-04-24T01:52:04;99685.00;;;12.00
58929;BMP180;44713;53.378;10.022;2023-04-24T01:54:30;99684.00;;;12.00
58929;BMP180;44713;53.378;10.022;2023-04-24T01:56:55;99680.00;;;12.00
58929;BMP180;44713;53.378;10.022;2023-04-24T01:59:21;99673.00;;;11.90
58929;BMP180;44713;53.378;10.022;2023-04-24T02:01:48;99671.00;;;11.90
58929;BMP180;44713;53.378;10.022;2023-04-24T02:04:14;99671.00;;;11.80
58929;BMP180;44713;53.378;10.022;2023-04-24T02:06:40;99671.00;;;11.80
58929;BMP180;44713;53.378;10.022;2023-04-24T02:09:06;99669.00;;;11.80
58929;BMP180;44713;53.378;10.022;2023-04-24T02:11:31;99672.00;;;11.80
58929;BMP180;44713;53.378;10.022;2023-04-24T02:13:57;99666.00;;;11.80
58929;BMP180;44713;53.378;10.022;2023-04-24T02:16:22;99671.00;;;11.80
58929;BMP180;44713;53.378;10.022;2023-04-24T02:18:49;99673.00;;;11.80
58929;BMP180;44713;53.378;10.022;2023-04-24T02:21:16;99669.00;;;11.70
58929;BMP180;44713;53.378;10.022;2023-04-24T02:23:41;99683.00;;;11.70
58929;BMP180;44713;53.378;10.022;2023-04-24T02:26:07;99677.00;;;11.60
58929;BMP180;44713;53.378;10.022;2023-04-24T02:28:32;99680.00;;;11.60
58929;BMP180;44713;53.378;10.022;2023-04-24T02:30:57;99680.00;;;11.60
58929;BMP180;44713;53.378;10.022;2023-04-24T02:33:23;99678.00;;;11.60
58929;BMP180;44713;53.378;10.022;2023-04-24T02:35:49;99681.00;;;11.50
58929;BMP180;44713;53.378;10.022;2023-04-24T02:38:14;99674.00;;;11.50
58929;BMP180;44713;53.378;10.022;2023-04-24T02:40:42;99660.00;;;11.50
58929;BMP180;44713;53.378;10.022;2023-04-24T02:43:09;99663.00;;;11.50
58929;BMP180;44713;53.378;10.022;2023-04-24T02:45:34;99666.00;;;11.40
58929;BMP180;44713;53.378;10.022;2023-04-24T02:48:00;99666.00;;;11.50
58929;BMP180;44713;53.378;10.022;2023-04-24T02:50:25;99665.00;;;11.40
58929;BMP180;44713;53.378;10.022;2023-04-24T02:52:50;99665.00;;;11.40
58929;BMP180;44713;53.378;10.022;2023-04-24T02:55:16;99658.00;;;11.50
58929;BMP180;44713;53.378;10.022;2023-04-24T02:57:41;99651.00;;;11.40
58929;BMP180;44713;53.378;10.022;2023-04-24T03:00:07;99660.00;;;11.40
58929;BMP180;44713;53.378;10.022;2023-04-24T03:02:34;99648.00;;;11.40
58929;BMP180;44713;53.378;10.022;2023-04-24T03:04:59;99651.00;;;11.40
58929;BMP180;44713;53.378;10.022;2023-04-24T03:07:25;99641.00;;;11.30
58929;BMP180;44713;53.378;10.022;2023-04-24T03:09:50;99652.00;;;11.30
58929;BMP180;44713;53.378;10.022;2023-04-24T03:12:15;99647.00;;;11.30
58929;BMP180;44713;53.378;10.022;2023-04-24T03:14:43;99647.00;;;11.30
58929;BMP180;44713;53.378;10.022;2023-04-24T03:17:08;99651.00;;;11.10
58929;BMP180;44713;53.378;10.022;2023-04-24T03:19:33;99655.00;;;11.10
58929;BMP180;44713;53.378;10.022;2023-04-24T03:22:04;99653.00;;;11.10
58929;BMP180;44713;53.378;10.022;2023-04-24T03:24:30;99659.00;;;11.00
58929;BMP180;44713;53.378;10.022;2023-04-24T03:26:56;99661.00;;;11.10
58929;BMP180;44713;53.378;10.022;2023-04-24T03:29:41;99664.00;;;11.10
58929;BMP180;44713;53.378;10.022;2023-04-24T03:32:06;99656.00;;;11.10
58929;BMP180;44713;53.378;10.022;2023-04-24T03:34:32;99657.00;;;11.00
58929;BMP180;44713;53.378;10.022;2023-04-24T03:36:58;99661.00;;;11.10
58929;BMP180;44713;53.378;10.022;2023-04-24T03:39:24;99656.00;;;10.90
58929;BMP180;44713;53.378;10.022;2023-04-24T03:41:53;99659.00;;;10.90
58929;BMP180;44713;53.378;10.022;2023-04-24T03:44:23;99660.00;;;10.90
58929;BMP180;44713;53.378;10.022;2023-04-24T03:46:49;99656.00;;;10.90
58929;BMP180;44713;53.378;10.022;2023-04-24T03:49:15;99651.00;;;10.80
58929;BMP180;44713;53.378;10.022;2023-04-24T03:51:43;99653.00;;;10.80
58929;BMP180;44713;53.378;10.022;2023-04-24T03:54:22;99651.00;;;10.80
58929;BMP180;44713;53.378;10.022;2023-04-24T03:56:49;99652.00;;;10.70
58929;BMP180;44713;53.378;10.022;2023-04-24T03:59:15;99652.00;;;10.70
58929;BMP180;44713;53.378;10.022;2023-04-24T04:01:44;99647.00;;;10.70
58929;BMP180;44713;53.378;10.022;2023-04-24T04:04:13;99652.00;;;10.70
58929;BMP180;44713;53.378;10.022;2023-04-24T04:06:40;99648.00;;;10.60
58929;BMP180;44713;53.378;10.022;2023-04-24T04:09:05;99651.00;;;10.60
58929;BMP180;44713;53.378;10.022;2023-04-24T04:11:32;99652.00;;;10.60
58929;BMP180;44713;53.378;10.022;2023-04-24T04:13:57;99657.00;;;10.60
58929;BMP180;44713;53.378;10.022;2023-04-24T04:16:24;99652.00;;;10.50
58929;BMP180;44713;53.378;10.022;2023-04-24T04:18:53;99661.00;;;10.50
58929;BMP180;44713;53.378;10.022;2023-04-24T04:21:19;99650.00;;;10.50
58929;BMP180;44713;53.378;10.022;2023-04-24T04:23:45;99656.00;;;10.50
58929;BMP180;44713;53.378;10.022;2023-04-24T04:26:26;99655.00;;;10.50
58929;BMP180;44713;53.378;10.022;2023-04-24T04:29:07;99654.00;;;10.50
58929;BMP180;44713;53.378;10.022;2023-04-24T04:31:36;99662.00;;;10.50
58929;BMP180;44713;53.378;10.022;2023-04-24T04:34:06;99662.00;;;10.50
58929;BMP180;44713;53.378;10.022;2023-04-24T04:36:33;99672.00;;;10.50
58929;BMP180;44713;53.378;10.022;2023-04-24T04:39:07;99658.00;;;10.40
58929;BMP180;44713;53.378;10.022;2023-04-24T04:41:50;99669.00;;;10.50
58929;BMP180;44713;53.378;10.022;2023-04-24T04:44:18;99657.00;;;10.40
58929;BMP180;44713;53.378;10.022;2023-04-24T04:46:43;99669.00;;;10.50
58929;BMP180;44713;53.378;10.022;2023-04-24T04:49:20;99659.00;;;10.40
58929;BMP180;44713;53.378;10.022;2023-04-24T04:51:47;99658.00;;;10.50
58929;BMP180;44713;53.378;10.022;2023-04-24T04:54:12;99664.00;;;10.50
58929;BMP180;44713;53.378;10.022;2023-04-24T04:56:38;99660.00;;;10.50
58929;BMP180;44713;53.378;10.022;2023-04-24T04:59:03;99669.00;;;10.50
58929;BMP180;44713;53.378;10.022;2023-04-24T05:01:29;99665.00;;;10.50
58929;BMP180;44713;53.378;10.022;2023-04-24T05:03:55;99665.00;;;10.50
58929;BMP180;44713;53.378;10.022;2023-04-24T05:06:21;99661.00;;;10.60
58929;BMP180;44713;53.378;10.022;2023-04-24T05:08:46;99663.00;;;10.50
58929;BMP180;44713;53.378;10.022;2023-04-24T05:11:23;99664.00;;;10.60
58929;BMP180;44713;53.378;10.022;2023-04-24T05:13:49;99654.00;;;10.60
58929;BMP180;44713;53.378;10.022;2023-04-24T05:16:18;99655.00;;;10.60
58929;BMP180;44713;53.378;10.022;2023-04-24T05:18:43;99659.00;;;10.60
58929;BMP180;44713;53.378;10.022;2023-04-24T05:21:12;99658.00;;;10.80
58929;BMP180;44713;53.378;10.022;2023-04-24T05:23:40;99654.00;;;10.80
58929;BMP180;44713;53.378;10.022;2023-04-24T05:26:05;99658.00;;;10.80
58929;BMP180;44713;53.378;10.022;2023-04-24T05:28:31;99653.00;;;10.90
58929;BMP180;44713;53.378;10.022;2023-04-24T05:31:05;99654.00;;;10.90
58929;BMP180;44713;53.378;10.022;2023-04-24T05:33:31;99647.00;;;10.90
58929;BMP180;44713;53.378;10.022;2023-04-24T05:35:57;99661.00;;;11.00
58929;BMP180;44713;53.378;10.022;2023-04-24T05:38:23;99658.00;;;11.10
58929;BMP180;44713;53.378;10.022;2023-04-24T05:40:48;99661.00;;;11.20
58929;BMP180;44713;53.378;10.022;2023-04-24T05:43:14;99661.00;;;11.20
58929;BMP180;44713;53.378;10.022;2023-04-24T05:45:39;99660.00;;;11.20
58929;BMP180;44713;53.378;10.022;2023-04-24T05:48:05;99661.00;;;11.20
58929;BMP180;44713;53.378;10.022;2023-04-24T05:50:31;99666.00;;;11.20
58929;BMP180;44713;53.378;10.022;2023-04-24T05:52:57;99666.00;;;11.20
58929;BMP180;44713;53.378;10.022;2023-04-24T05:55:31;99661.00;;;11.30
58929;BMP180;44713;53.378;10.022;2023-04-24T05:57:57;99664.00;;;11.30
58929;BMP180;44713;53.378;10.022;2023-04-24T06:00:24;99662.00;;;11.30
58929;BMP180;44713;53.378;10.022;2023-04-24T06:02:58;99670.00;;;11.30
58929;BMP180;44713;53.378;10.022;2023-04-24T06:05:24;99662.00;;;11.40
58929;BMP180;44713;53.378;10.022;2023-04-24T06:07:52;99670.00;;;11.40
58929;BMP180;44713;53.378;10.022;2023-04-24T06:10:19;99669.00;;;11.50
58929;BMP180;44713;53.378;10.022;2023-04-24T06:12:44;99668.00;;;11.50
58929;BMP180;44713;53.378;10.022;2023-04-24T06:15:15;99673.00;;;11.60
58929;BMP180;44713;53.378;10.022;2023-04-24T06:17:57;99672.00;;;11.70
58929;BMP180;44713;53.378;10.022;2023-04-24T06:20:23;99667.00;;;11.70
58929;BMP180;44713;53.378;10.022;2023-04-24T06:22:48;99677.00;;;11.70
58929;BMP180;44713;53.378;10.022;2023-04-24T06:25:20;99680.00;;;11.70
58929;BMP180;44713;53.378;10.022;2023-04-24T06:27:49;99680.00;;;11.90
58929;BMP180;44713;53.378;10.022;2023-04-24T06:30:15;99681.00;;;12.00
58929;BMP180;44713;53.378;10.022;2023-04-24T06:32:40;99674.00;;;12.00
58929;BMP180;44713;53.378;10.022;2023-04-24T06:35:06;99675.00;;;12.00
58929;BMP180;44713;53.378;10.022;2023-04-24T06:37:33;99686.00;;;12.10
58929;BMP180;44713;53.378;10.022;2023-04-24T06:40:01;99691.00;;;12.20
58929;BMP180;44713;53.378;10.022;2023-04-24T06:42:27;99683.00;;;12.20
58929;BMP180;44713;53.378;10.022;2023-04-24T06:44:54;99682.00;;;12.20
58929;BMP180;44713;53.378;10.022;2023-04-24T06:47:19;99677.00;;;12.20
58929;BMP180;44713;53.378;10.022;2023-04-24T06:49:45;99685.00;;;12.40
58929;BMP180;44713;53.378;10.022;2023-04-24T06:52:10;99680.00;;;12.50
58929;BMP180;44713;53.378;10.022;2023-04-24T06:54:35;99689.00;;;12.40
58929;BMP180;44713;53.378;10.022;2023-04-24T06:57:01;99675.00;;;12.50
58929;BMP180;44713;53.378;10.022;2023-04-24T06:59:27;99686.00;;;12.60
58929;BMP180;44713;53.378;10.022;2023-04-24T07:01:53;99685.00;;;12.50
58929;BMP180;44713;53.378;10.022;2023-04-24T07:04:18;99693.00;;;12.60
58929;BMP180;44713;53.378;10.022;2023-04-24T07:06:47;99687.00;;;12.60
58929;BMP180;44713;53.378;10.022;2023-04-24T07:09:14;99687.00;;;12.60
58929;BMP180;44713;53.378;10.022;2023-04-24T07:11:41;99686.00;;;12.50
58929;BMP180;44713;53.378;10.022;2023-04-24T07:14:07;99689.00;;;12.50
58929;BMP180;44713;53.378;10.022;2023-04-24T07:16:32;99685.00;;;12.60
58929;BMP180;44713;53.378;10.022;2023-04-24T07:18:58;99699.00;;;12.70
58929;BMP180;44713;53.378;10.022;2023-04-24T07:21:23;99692.00;;;12.90
58929;BMP180;44713;53.378;10.022;2023-04-24T07:23:48;99697.00;;;12.80
58929;BMP180;44713;53.378;10.022;2023-04-24T07:26:14;99708.00;;;12.90
58929;BMP180;44713;53.378;10.022;2023-04-24T07:28:40;99704.00;;;12.80
58929;BMP180;44713;53.378;10.022;2023-04-24T07:31:06;99703.00;;;12.90
58929;BMP180;44713;53.378;10.022;2023-04-24T07:33:31;99708.00;;;13.00
58929;BMP180;44713;53.378;10.022;2023-04-24T07:35:57;99712.00;;;13.00
58929;BMP180;44713;53.378;10.022;2023-04-24T07:38:22;99712.00;;;13.00
58929;BMP180;44713;53.378;10.022;2023-04-24T07:40:48;99727.00;;;13.00
58929;BMP180;44713;53.378;10.022;2023-04-24T07:43:14;99718.00;;;13.10
58929;BMP180;44713;53.378;10.022;2023-04-24T07:45:40;99724.00;;;13.10
58929;BMP180;44713;53.378;10.022;2023-04-24T07:48:06;99725.00;;;13.20
58929;BMP180;44713;53.378;10.022;2023-04-24T07:50:31;99725.00;;;13.30
58929;BMP180;44713;53.378;10.022;2023-04-24T07:52:57;99723.00;;;13.40
58929;BMP180;44713;53.378;10.022;2023-04-24T07:55:22;99720.00;;;13.60
58929;BMP180;44713;53.378;10.022;2023-04-24T07:57:48;99716.00;;;13.50
58929;BMP180;44713;53.378;10.022;2023-04-24T08:00:14;99728.00;;;13.50
58929;BMP180;44713;53.378;10.022;2023-04-24T08:02:39;99732.00;;;13.40
58929;BMP180;44713;53.378;10.022;2023-04-24T08:05:06;99736.00;;;13.20
58929;BMP180;44713;53.378;10.022;2023-04-24T08:07:32;99748.00;;;13.20
58929;BMP180;44713;53.378;10.022;2023-04-24T08:09:57;99743.00;;;13.20
58929;BMP180;44713;53.378;10.022;2023-04-24T08:12:24;99751.00;;;13.10
58929;BMP180;44713;53.378;10.022;2023-04-24T08:14:49;99754.00;;;13.10
58929;BMP180;44713;53.378;10.022;2023-04-24T08:17:16;99766.00;;;13.00
58929;BMP180;44713;53.378;10.022;2023-04-24T08:19:42;99750.00;;;12.90
58929;BMP180;44713;53.378;10.022;2023-04-24T08:22:12;99765.00;;;12.90
58929;BMP180;44713;53.378;10.022;2023-04-24T08:24:38;99769.00;;;12.90
58929;BMP180;44713;53.378;10.022;2023-04-24T08:27:03;99766.00;;;12.90
58929;BMP180;44713;53.378;10.022;2023-04-24T08:29:28;99763.00;;;13.00
58929;BMP180;44713;53.378;10.022;2023-04-24T08:31:54;99763.00;;;13.10
58929;BMP180;44713;53.378;10.022;2023-04-24T08:34:20;99759.00;;;13.10
58929;BMP180;44713;53.378;10.022;2023-04-24T08:36:46;99763.00;;;13.20
58929;BMP180;44713;53.378;10.022;2023-04-24T08:39:11;99763.00;;;13.40
58929;BMP180;44713;53.378;10.022;2023-04-24T08:41:37;99762.00;;;13.60
58929;BMP180;44713;53.378;10.022;2023-04-24T08:44:03;99757.00;;;13.70
58929;BMP180;44713;53.378;10.022;2023-04-24T08:46:30;99763.00;;;13.80
58929;BMP180;44713;53.378;10.022;2023-04-24T08:48:55;99762.00;;;14.00
58929;BMP180;44713;53.378;10.022;2023-04-24T08:51:21;99767.00;;;13.90
58929;BMP180;44713;53.378;10.022;2023-04-24T08:53:48;99764.00;;;13.80
58929;BMP180;44713;53.378;10.022;2023-04-24T08:56:13;99774.00;;;13.70
58929;BMP180;44713;53.378;10.022;2023-04-24T08:58:39;99775.00;;;13.60
58929;BMP180;44713;53.378;10.022;2023-04-24T09:01:04;99769.00;;;13.60
58929;BMP180;44713;53.378;10.022;2023-04-24T09:03:31;99771.00;;;13.60
58929;BMP180;44713;53.378;10.022;2023-04-24T09:05:57;99779.00;;;13.60
58929;BMP180;44713;53.378;10.022;2023-04-24T09:08:25;99774.00;;;13.60
58929;BMP180;44713;53.378;10.022;2023-04-24T09:10:51;99775.00;;;13.50
58929;BMP180;44713;53.378;10.022;2023-04-24T09:13:18;99785.00;;;13.50
58929;BMP180;44713;53.378;10.022;2023-04-24T09:15:44;99773.00;;;13.60
58929;BMP180;44713;53.378;10.022;2023-04-24T09:18:09;99780.00;;;13.40
58929;BMP180;44713;53.378;10.022;2023-04-24T09:20:58;99770.00;;;13.50
58929;BMP180;44713;53.378;10.022;2023-04-24T09:23:30;99771.00;;;13.60
58929;BMP180;44713;53.378;10.022;2023-04-24T09:25:56;99782.00;;;13.80
58929;BMP180;44713;53.378;10.022;2023-04-24T09:28:29;99774.00;;;13.70
58929;BMP180;44713;53.378;10.022;2023-04-24T09:33:30;99778.00;;;13.80
58929;BMP180;44713;53.378;10.022;2023-04-24T09:35:56;99776.00;;;13.80
58929;BMP180;44713;53.378;10.022;2023-04-24T09:38:34;99785.00;;;13.90
58929;BMP180;44713;53.378;10.022;2023-04-24T09:41:01;99789.00;;;13.90
58929;BMP180;44713;53.378;10.022;2023-04-24T09:43:28;99786.00;;;13.90
58929;BMP180;44713;53.378;10.022;2023-04-24T09:45:56;99791.00;;;13.80
58929;BMP180;44713;53.378;10.022;2023-04-24T09:48:33;99788.00;;;13.80
58929;BMP180;44713;53.378;10.022;2023-04-24T09:51:01;99794.00;;;13.80
58929;BMP180;44713;53.378;10.022;2023-04-24T09:53:27;99783.00;;;13.70
58929;BMP180;44713;53.378;10.022;2023-04-24T09:55:52;99791.00;;;13.60
58929;BMP180;44713;53.378;10.022;2023-04-24T09:58:24;99785.00;;;13.60
58929;BMP180;44713;53.378;10.022;2023-04-24T10:00:53;99783.00;;;13.70
58929;BMP180;44713;53.378;10.022;2023-04-24T10:03:18;99783.00;;;13.70
58929;BMP180;44713;53.378;10.022;2023-04-24T10:05:45;99788.00;;;13.80
58929;BMP180;44713;53.378;10.022;2023-04-24T10:08:12;99799.00;;;13.80
58929;BMP180;44713;53.378;10.022;2023-04-24T10:10:42;99789.00;;;13.70
58929;BMP180;44713;53.378;10.022;2023-04-24T10:13:13;99794.00;;;13.70
58929;BMP180;44713;53.378;10.022;2023-04-24T10:15:40;99780.00;;;13.70
58929;BMP180;44713;53.378;10.022;2023-04-24T10:18:07;99790.00;;;13.70
58929;BMP180;44713;53.378;10.022;2023-04-24T10:20:37;99796.00;;;13.60
58929;BMP180;44713;53.378;10.022;2023-04-24T10:23:03;99801.00;;;13.60
58929;BMP180;44713;53.378;10.022;2023-04-24T10:25:30;99794.00;;;13.70
58929;BMP180;44713;53.378;10.022;2023-04-24T10:27:56;99788.00;;;13.70
58929;BMP180;44713;53.378;10.022;2023-04-24T10:30:27;99798.00;;;13.80
58929;BMP180;44713;53.378;10.022;2023-04-24T10:32:52;99798.00;;;13.80
58929;BMP180;44713;53.378;10.022;2023-04-24T10:35:18;99799.00;;;14.00
58929;BMP180;44713;53.378;10.022;2023-04-24T10:37:54;99797.00;;;14.20
58929;BMP180;44713;53.378;10.022;2023-04-24T10:40:32;99794.00;;;14.20
58929;BMP180;44713;53.378;10.022;2023-04-24T10:43:04;99790.00;;;14.10
58929;BMP180;44713;53.378;10.022;2023-04-24T10:45:33;99793.00;;;14.00
58929;BMP180;44713;53.378;10.022;2023-04-24T10:48:02;99794.00;;;14.30
58929;BMP180;44713;53.378;10.022;2023-04-24T10:50:44;99798.00;;;14.40
58929;BMP180;44713;53.378;10.022;2023-04-24T10:53:18;99778.00;;;14.50
58929;BMP180;44713;53.378;10.022;2023-04-24T10:55:49;99786.00;;;14.70
58929;BMP180;44713;53.378;10.022;2023-04-24T10:58:16;99791.00;;;15.10
58929;BMP180;44713;53.378;10.022;2023-04-24T11:00:43;99788.00;;;15.00
58929;BMP180;44713;53.378;10.022;2023-04-24T11:03:31;99786.00;;;14.70
58929;BMP180;44713;53.378;10.022;2023-04-24T11:06:00;99786.00;;;14.90
58929;BMP180;44713;53.378;10.022;2023-04-24T11:08:28;99786.00;;;15.30
58929;BMP180;44713;53.378;10.022;2023-04-24T11:11:00;99789.00;;;15.20
58929;BMP180;44713;53.378;10.022;2023-04-24T11:16:15;99794.00;;;14.80
58929;BMP180;44713;53.378;10.022;2023-04-24T11:18:42;99793.00;;;14.80
58929;BMP180;44713;53.378;10.022;2023-04-24T11:21:18;99791.00;;;14.60
58929;BMP180;44713;53.378;10.022;2023-04-24T11:23:45;99803.00;;;14.60
58929;BMP180;44713;53.378;10.022;2023-04-24T11:26:18;99793.00;;;14.70
58929;BMP180;44713;53.378;10.022;2023-04-24T11:28:46;99798.00;;;14.50
58929;BMP180;44713;53.378;10.022;2023-04-24T11:31:40;99797.00;;;14.40
58929;BMP180;44713;53.378;10.022;2023-04-24T11:34:11;99790.00;;;14.20
58929;BMP180;44713;53.378;10.022;2023-04-24T11:36:38;99796.00;;;14.20
58929;BMP180;44713;53.378;10.022;2023-04-24T11:39:04;99798.00;;;14.40
58929;BMP180;44713;53.378;10.022;2023-04-24T11:41:30;99791.00;;;14.90
58929;BMP180;44713;53.378;10.022;2023-04-24T11:43:56;99783.00;;;15.40
58929;BMP180;44713;53.378;10.022;2023-04-24T11:46:22;99788.00;;;15.40
58929;BMP180;44713;53.378;10.022;2023-04-24T11:48:47;99787.00;;;15.50
58929;BMP180;44713;53.378;10.022;2023-04-24T11:51:13;99783.00;;;15.60
58929;BMP180;44713;53.378;10.022;2023-04-24T11:53:39;99791.00;;;15.80
58929;BMP180;44713;53.378;10.022;2023-04-24T11:56:05;99792.00;;;15.60
58929;BMP180;44713;53.378;10.022;2023-04-24T11:58:38;99789.00;;;15.50
58929;BMP180;44713;53.378;10.022;2023-04-24T12:01:04;99785.00;;;15.80
58929;BMP180;44713;53.378;10.022;2023-04-24T12:03:30;99788.00;;;15.40
58929;BMP180;44713;53.378;10.022;2023-04-24T12:06:10;99786.00;;;15.40
58929;BMP180;44713;53.378;10.022;2023-04-24T12:08:36;99783.00;;;15.20
58929;BMP180;44713;53.378;10.022;2023-04-24T12:11:03;99794.00;;;15.10
58929;BMP180;44713;53.378;10.022;2023-04-24T12:13:29;99790.00;;;14.90
58929;BMP180;44713;53.378;10.022;2023-04-24T12:15:54;99789.00;;;14.80
58929;BMP180;44713;53.378;10.022;2023-04-24T12:18:24;99792.00;;;14.90
58929;BMP180;44713;53.378;10.022;2023-04-24T12:20:49;99793.00;;;14.80
58929;BMP180;44713;53.378;10.022;2023-04-24T12:23:15;99799.00;;;14.60
58929;BMP180;44713;53.378;10.022;2023-04-24T12:25:40;99804.00;;;14.40
58929;BMP180;44713;53.378;10.022;2023-04-24T12:30:42;99817.00;;;14.20
58929;BMP180;44713;53.378;10.022;2023-04-24T12:33:09;99823.00;;;14.00
58929;BMP180;44713;53.378;10.022;2023-04-24T12:35:34;99817.00;;;13.90
58929;BMP180;44713;53.378;10.022;2023-04-24T12:38:12;99823.00;;;13.90
58929;BMP180;44713;53.378;10.022;2023-04-24T12:40:38;99819.00;;;14.00
58929;BMP180;44713;53.378;10.022;2023-04-24T12:43:13;99813.00;;;14.00
58929;BMP180;44713;53.378;10.022;2023-04-24T12:45:39;99813.00;;;14.10
58929;BMP180;44713;53.378;10.022;2023-04-24T12:48:05;99810.00;;;14.10
58929;BMP180;44713;53.378;10.022;2023-04-24T12:50:30;99812.00;;;14.10
58929;BMP180;44713;53.378;10.022;2023-04-24T12:52:55;99820.00;;;13.90
58929;BMP180;44713;53.378;10.022;2023-04-24T12:55:21;99821.00;;;13.90
58929;BMP180;44713;53.378;10.022;2023-04-24T12:57:46;99831.00;;;13.80
58929;BMP180;44713;53.378;10.022;2023-04-24T13:00:12;99834.00;;;13.60
58929;BMP180;44713;53.378;10.022;2023-04-24T13:02:38;99826.00;;;13.60
58929;BMP180;44713;53.378;10.022;2023-04-24T13:05:03;99834.00;;;13.50
58929;BMP180;44713;53.378;10.022;2023-04-24T13:07:29;99826.00;;;13.30
58929;BMP180;44713;53.378;10.022;2023-04-24T13:09:55;99828.00;;;13.30
58929;BMP180;44713;53.378;10.022;2023-04-24T13:12:22;99825.00;;;13.20
58929;BMP180;44713;53.378;10.022;2023-04-24T13:14:49;99825.00;;;13.30
58929;BMP180;44713;53.378;10.022;2023-04-24T13:17:14;99830.00;;;13.40
58929;BMP180;44713;53.378;10.022;2023-04-24T13:19:41;99830.00;;;13.50
58929;BMP180;44713;53.378;10.022;2023-04-24T13:22:10;99829.00;;;13.50
58929;BMP180;44713;53.378;10.022;2023-04-24T13:24:35;99826.00;;;13.60
58929;BMP180;44713;53.378;10.022;2023-04-24T13:27:01;99824.00;;;13.60
58929;BMP180;44713;53.378;10.022;2023-04-24T13:29:26;99825.00;;;13.50
58929;BMP180;44713;53.378;10.022;2023-04-24T13:31:55;99822.00;;;13.40
58929;BMP180;44713;53.378;10.022;2023-04-24T13:34:27;99820.00;;;13.20
58929;BMP180;44713;53.378;10.022;2023-04-24T13:36:54;99827.00;;;13.20
58929;BMP180;44713;53.378;10.022;2023-04-24T13:39:20;99822.00;;;13.10
58929;BMP180;44713;53.378;10.022;2023-04-24T13:41:46;99836.00;;;13.00
58929;BMP180;44713;53.378;10.022;2023-04-24T13:44:14;99836.00;;;12.90
58929;BMP180;44713;53.378;10.022;2023-04-24T13:46:39;99839.00;;;12.80
58929;BMP180;44713;53.378;10.022;2023-04-24T13:49:05;99826.00;;;12.80
58929;BMP180;44713;53.378;10.022;2023-04-24T13:51:30;99826.00;;;12.90
58929;BMP180;44713;53.378;10.022;2023-04-24T13:53:56;99808.00;;;13.10
58929;BMP180;44713;53.378;10.022;2023-04-24T13:56:22;99817.00;;;13.20
58929;BMP180;44713;53.378;10.022;2023-04-24T13:58:47;99807.00;;;13.30
58929;BMP180;44713;53.378;10.022;2023-04-24T14:01:14;99818.00;;;13.30
58929;BMP180;44713;53.378;10.022;2023-04-24T14:03:41;99812.00;;;13.40